Time;durP1;ratioP1;P1;durP2;ratioP2;P2;SDS_P1;SDS_P2;PMS_P1;PMS_P2;Temp;Humidity;BMP_temperature;BMP_pressure;BME280_temperature;BME280_humidity;BME280_pressure;Samples;Min_cycle;Max_cycle;Signal;HPM_P1;HPM_P2
2021/12/11 00:01:16;;;;;;;29.38;13.98;;;;;;;;;;5052306;28;20017;-66
2021/12/11 00:03:43;;;;;;;29.75;15.70;;;;;;;;;;5048977;28;20025;-67
2021/12/11 00:06:10;;;;;;;33.35;15.68;;;;;;;;;;5052634;28;20024;-66
2021/12/11 00:08:35;;;;;;;32.55;15.15;;;;;;;;;;5051658;28;20013;-66
2021/12/11 00:11:07;;;;;;;36.63;16.23;;;;;;;;;;5052124;28;20166;-66
2021/12/11 00:13:36;;;;;;;30.15;15.80;;;;;;;;;;5052233;28;20013;-67
2021/12/11 00:16:03;;;;;;;36.10;16.77;;;;;;;;;;5051944;28;20028;-66
2021/12/11 00:18:29;;;;;;;38.03;16.77;;;;;;;;;;5052018;28;20033;-66
2021/12/11 00:20:59;;;;;;;37.80;17.10;;;;;;;;;;5044782;28;20036;-66
2021/12/11 00:23:28;;;;;;;34.03;17.40;;;;;;;;;;5032603;28;20021;-67
2021/12/11 00:25:53;;;;;;;38.42;16.73;;;;;;;;;;5032691;28;20033;-66
2021/12/11 00:28:18;;;;;;;31.90;15.48;;;;;;;;;;5032810;28;20033;-67
2021/12/11 00:30:44;;;;;;;29.83;14.98;;;;;;;;;;5042106;28;20028;-67
2021/12/11 00:33:22;;;;;;;36.00;16.20;;;;;;;;;;5047626;28;20106;-67
2021/12/11 00:35:48;;;;;;;32.65;16.02;;;;;;;;;;5035362;28;20018;-66
2021/12/11 00:38:18;;;;;;;28.58;15.15;;;;;;;;;;5032828;28;20028;-65
2021/12/11 00:40:45;;;;;;;33.42;15.38;;;;;;;;;;5032247;28;20087;-67
2021/12/11 00:43:15;;;;;;;39.00;16.83;;;;;;;;;;5032687;28;20494;-67
2021/12/11 00:45:40;;;;;;;;;;;;;;;;;;5051079;28;20032;-67
2021/12/11 00:48:16;;;;;;;30.17;15.02;;;;;;;;;;5051370;28;19908;-66
2021/12/11 00:50:43;;;;;;;32.55;15.40;;;;;;;;;;5050856;28;20021;-67
2021/12/11 00:53:08;;;;;;;32.40;15.57;;;;;;;;;;5052119;28;20028;-67
2021/12/11 00:55:36;;;;;;;33.45;16.45;;;;;;;;;;5051388;28;20029;-66
2021/12/11 00:58:07;;;;;;;36.72;15.02;;;;;;;;;;5045125;28;20332;-67
2021/12/11 01:00:35;;;;;;;33.88;14.90;;;;;;;;;;5048399;28;20640;-67
2021/12/11 01:03:00;;;;;;;32.10;15.48;;;;;;;;;;5048901;28;20017;-66
2021/12/11 01:05:32;;;;;;;32.53;14.45;;;;;;;;;;5051106;28;20550;-66
2021/12/11 01:07:57;;;;;;;38.05;15.65;;;;;;;;;;5052020;28;20075;-67
2021/12/11 01:10:25;;;;;;;28.88;15.13;;;;;;;;;;5051168;28;20021;-67
2021/12/11 01:12:57;;;;;;;33.20;14.57;;;;;;;;;;5051369;28;20045;-65
2021/12/11 01:15:33;;;;;;;31.40;14.60;;;;;;;;;;5048860;28;20090;-67
2021/12/11 01:18:21;;;;;;;38.28;16.02;;;;;;;;;;5050662;28;20024;-66
2021/12/11 01:21:01;;;;;;;30.85;15.23;;;;;;;;;;5050856;28;20470;-67
2021/12/11 01:26:00;;;;;;;34.50;15.45;;;;;;;;;;5051059;28;20031;-67
2021/12/11 01:28:26;;;;;;;34.65;13.80;;;;;;;;;;5051455;28;20071;-67
2021/12/11 01:30:52;;;;;;;31.58;14.50;;;;;;;;;;5050683;28;20024;-67
2021/12/11 01:33:17;;;;;;;33.67;14.73;;;;;;;;;;5051210;28;20017;-67
2021/12/11 01:35:43;;;;;;;34.28;15.35;;;;;;;;;;5050844;28;20024;-67
2021/12/11 01:38:17;;;;;;;39.75;15.65;;;;;;;;;;5051572;28;20029;-66
2021/12/11 01:40:44;;;;;;;52.70;18.80;;;;;;;;;;5050972;28;20021;-67
2021/12/11 01:43:10;;;;;;;60.45;23.90;;;;;;;;;;5051390;28;20108;-67
2021/12/11 01:45:36;;;;;;;57.33;21.45;;;;;;;;;;5048531;28;20091;-66
2021/12/11 01:48:02;;;;;;;60.70;25.25;;;;;;;;;;5050818;28;20025;-66
2021/12/11 01:50:33;;;;;;;62.20;25.67;;;;;;;;;;5049182;28;20443;-65
2021/12/11 01:53:02;;;;;;;69.40;25.15;;;;;;;;;;5051063;28;20055;-67
2021/12/11 01:55:42;;;;;;;72.13;27.83;;;;;;;;;;5050952;28;20083;-66
2021/12/11 01:58:09;;;;;;;82.20;26.90;;;;;;;;;;5033309;28;20107;-66
2021/12/11 02:00:38;;;;;;;71.22;26.88;;;;;;;;;;5050352;28;20017;-67
2021/12/11 02:03:09;;;;;;;72.40;27.97;;;;;;;;;;5049305;28;20359;-67
2021/12/11 02:05:37;;;;;;;90.78;29.23;;;;;;;;;;5034259;28;20071;-66
2021/12/11 02:08:04;;;;;;;80.57;29.00;;;;;;;;;;5048239;28;20013;-66
2021/12/11 02:10:34;;;;;;;74.28;27.98;;;;;;;;;;5050078;28;20017;-67
2021/12/11 02:13:00;;;;;;;82.95;31.55;;;;;;;;;;5048640;28;20047;-67
2021/12/11 02:15:31;;;;;;;94.35;34.97;;;;;;;;;;5049839;28;20029;-66
2021/12/11 02:18:00;;;;;;;90.45;30.20;;;;;;;;;;5050503;28;20500;-67
2021/12/11 02:20:28;;;;;;;76.35;29.25;;;;;;;;;;5050349;28;20021;-66
2021/12/11 02:22:54;;;;;;;91.00;32.88;;;;;;;;;;5048909;28;20564;-66
2021/12/11 02:25:27;;;;;;;99.88;31.65;;;;;;;;;;5047872;28;20088;-66
2021/12/11 02:27:54;;;;;;;91.18;31.45;;;;;;;;;;5049033;28;20047;-66
2021/12/11 02:30:21;;;;;;;108.72;34.70;;;;;;;;;;5049912;28;20434;-66
2021/12/11 02:32:50;;;;;;;96.15;32.80;;;;;;;;;;5049382;28;20025;-66
2021/12/11 02:35:25;;;;;;;110.15;33.67;;;;;;;;;;5049733;28;20090;-66
2021/12/11 02:37:55;;;;;;;114.43;35.28;;;;;;;;;;5051953;28;20513;-67
2021/12/11 02:40:27;;;;;;;114.38;36.22;;;;;;;;;;5049545;28;20025;-66
2021/12/11 02:43:03;;;;;;;120.45;36.13;;;;;;;;;;5049488;28;20485;-66
2021/12/11 02:45:36;;;;;;;129.20;41.50;;;;;;;;;;5049983;28;20057;-67
2021/12/11 02:48:07;;;;;;;121.15;33.78;;;;;;;;;;5050173;28;20029;-66
2021/12/11 02:50:32;;;;;;;138.68;40.08;;;;;;;;;;5049845;28;20025;-66
2021/12/11 02:53:04;;;;;;;123.07;34.57;;;;;;;;;;5048585;28;20078;-67
2021/12/11 02:55:36;;;;;;;124.18;37.33;;;;;;;;;;5049439;28;20325;-66
2021/12/11 02:58:08;;;;;;;121.55;35.40;;;;;;;;;;5049866;28;20381;-67
2021/12/11 03:00:40;;;;;;;115.93;36.22;;;;;;;;;;5045023;28;20099;-66
2021/12/11 03:03:07;;;;;;;138.00;37.05;;;;;;;;;;5050053;28;20104;-66
2021/12/11 03:06:02;;;;;;;144.88;38.55;;;;;;;;;;5050078;28;20096;-66
2021/12/11 03:08:28;;;;;;;146.25;36.00;;;;;;;;;;5048566;28;20016;-66
2021/12/11 03:10:55;;;;;;;152.45;39.50;;;;;;;;;;5048305;28;20380;-67
2021/12/11 03:13:21;;;;;;;137.88;34.90;;;;;;;;;;5048912;28;20080;-66
2021/12/11 03:15:46;;;;;;;141.07;36.13;;;;;;;;;;5053444;28;20424;-66
2021/12/11 03:18:13;;;;;;;164.35;37.13;;;;;;;;;;5053744;28;20132;-67
2021/12/11 03:20:39;;;;;;;157.05;38.22;;;;;;;;;;5052896;28;20094;-66
2021/12/11 03:23:07;;;;;;;153.13;38.05;;;;;;;;;;5053440;28;20413;-67
2021/12/11 03:25:32;;;;;;;142.57;36.70;;;;;;;;;;5053397;28;20036;-66
2021/12/11 03:27:58;;;;;;;147.10;37.38;;;;;;;;;;5049496;28;20428;-67
2021/12/11 03:30:25;;;;;;;149.07;36.70;;;;;;;;;;5046067;28;20021;-66
2021/12/11 03:32:52;;;;;;;158.95;37.80;;;;;;;;;;5053717;28;20032;-67
2021/12/11 03:35:17;;;;;;;147.02;36.00;;;;;;;;;;5053253;28;20021;-66
2021/12/11 03:37:43;;;;;;;149.68;38.38;;;;;;;;;;5053071;28;20116;-67
2021/12/11 03:40:08;;;;;;;156.60;38.50;;;;;;;;;;5052332;28;20110;-66
2021/12/11 03:42:36;;;;;;;161.55;38.47;;;;;;;;;;5052591;28;20023;-66
2021/12/11 03:45:03;;;;;;;185.57;39.10;;;;;;;;;;5051978;28;20027;-66
2021/12/11 03:47:31;;;;;;;160.77;38.50;;;;;;;;;;5038168;28;20025;-66
2021/12/11 03:49:56;;;;;;;179.90;43.15;;;;;;;;;;5048803;28;20047;-66
2021/12/11 03:52:22;;;;;;;166.98;38.03;;;;;;;;;;5050740;28;20541;-66
2021/12/11 03:54:50;;;;;;;135.48;38.42;;;;;;;;;;5050157;28;20024;-66
2021/12/11 03:57:17;;;;;;;182.70;38.65;;;;;;;;;;5049244;28;20039;-67
2021/12/11 03:59:44;;;;;;;163.63;38.63;;;;;;;;;;5050635;28;20163;-67
2021/12/11 04:02:11;;;;;;;174.15;40.13;;;;;;;;;;5050957;28;20056;-66
2021/12/11 04:05:02;;;;;;;178.10;40.20;;;;;;;;;;5050222;28;20024;-66
2021/12/11 04:07:30;;;;;;;164.45;38.83;;;;;;;;;;5033471;28;20063;-66
2021/12/11 04:09:56;;;;;;;146.88;38.63;;;;;;;;;;5049165;28;20569;-66
2021/12/11 04:12:21;;;;;;;146.93;39.58;;;;;;;;;;5050113;28;20107;-66
2021/12/11 04:14:48;;;;;;;165.55;36.90;;;;;;;;;;5050159;28;20108;-66
2021/12/11 04:17:14;;;;;;;153.30;39.28;;;;;;;;;;5050618;28;20056;-66
2021/12/11 04:19:40;;;;;;;147.65;38.85;;;;;;;;;;5050264;28;20079;-66
2021/12/11 04:22:07;;;;;;;137.30;39.03;;;;;;;;;;5049235;28;20025;-67
2021/12/11 04:24:33;;;;;;;147.52;38.88;;;;;;;;;;5049386;28;20057;-66
2021/12/11 04:27:00;;;;;;;143.98;38.33;;;;;;;;;;5050357;28;20020;-66
2021/12/11 04:29:25;;;;;;;141.65;40.00;;;;;;;;;;5050385;28;20025;-66
2021/12/11 04:31:51;;;;;;;137.95;36.97;;;;;;;;;;5049382;28;20021;-67
2021/12/11 04:34:17;;;;;;;147.57;38.47;;;;;;;;;;5049237;28;20025;-66
2021/12/11 04:36:45;;;;;;;130.18;36.72;;;;;;;;;;5046627;28;20107;-66
2021/12/11 04:39:12;;;;;;;127.15;36.45;;;;;;;;;;5058332;28;20017;-66
2021/12/11 04:41:48;;;;;;;122.97;36.03;;;;;;;;;;5051581;28;20017;-66
2021/12/11 04:44:17;;;;;;;134.15;37.55;;;;;;;;;;5050908;28;20028;-66
2021/12/11 04:46:42;;;;;;;135.93;37.28;;;;;;;;;;5051379;28;20048;-66
2021/12/11 04:49:28;;;;;;;114.85;35.45;;;;;;;;;;5051784;28;20045;-66
2021/12/11 04:52:18;;;;;;;143.48;39.38;;;;;;;;;;5051487;28;20013;-66
2021/12/11 04:54:59;;;;;;;142.05;36.40;;;;;;;;;;5046899;28;20433;-66
2021/12/11 05:00:10;;;;;;;132.02;36.67;;;;;;;;;;5050400;28;20108;-66
2021/12/11 05:05:47;;;;;;;117.07;36.15;;;;;;;;;;5051583;28;20035;-66
2021/12/11 05:10:50;;;;;;;123.95;37.85;;;;;;;;;;5049103;28;20575;-66
2021/12/11 05:13:16;;;;;;;117.03;35.88;;;;;;;;;;5049080;28;20021;-66
2021/12/11 05:15:44;;;;;;;123.50;35.50;;;;;;;;;;5049592;28;20492;-66
2021/12/11 05:18:12;;;;;;;130.32;34.63;;;;;;;;;;5049036;28;20117;-66
2021/12/11 05:20:38;;;;;;;122.65;37.08;;;;;;;;;;5050338;28;20029;-66
2021/12/11 05:23:03;;;;;;;136.13;36.95;;;;;;;;;;5051226;28;20048;-66
2021/12/11 05:25:29;;;;;;;127.63;37.95;;;;;;;;;;5050882;28;20182;-66
2021/12/11 05:27:54;;;;;;;120.00;35.85;;;;;;;;;;5050685;28;20020;-66
2021/12/11 05:30:24;;;;;;;121.68;37.40;;;;;;;;;;5050800;28;20406;-66
2021/12/11 05:32:50;;;;;;;121.15;36.38;;;;;;;;;;5050110;28;20029;-66
2021/12/11 05:35:16;;;;;;;123.65;37.25;;;;;;;;;;5050363;28;20021;-66
2021/12/11 05:37:41;;;;;;;110.38;33.60;;;;;;;;;;5049984;28;20028;-66
2021/12/11 05:40:07;;;;;;;106.38;34.92;;;;;;;;;;5050152;28;20044;-66
2021/12/11 05:42:32;;;;;;;117.82;34.85;;;;;;;;;;5050490;28;20068;-66
2021/12/11 05:44:58;;;;;;;122.10;37.53;;;;;;;;;;5050819;28;20390;-66
2021/12/11 05:47:23;;;;;;;125.13;37.28;;;;;;;;;;5046986;28;20466;-66
2021/12/11 05:49:49;;;;;;;124.55;36.30;;;;;;;;;;5047884;28;20025;-66
2021/12/11 05:52:14;;;;;;;113.60;35.67;;;;;;;;;;5048219;28;20036;-66
2021/12/11 05:54:41;;;;;;;116.60;35.17;;;;;;;;;;5048470;28;20385;-66
2021/12/11 05:57:09;;;;;;;118.82;37.08;;;;;;;;;;5048913;28;20032;-66
2021/12/11 05:59:34;;;;;;;101.80;35.08;;;;;;;;;;5048645;28;20048;-66
2021/12/11 06:02:06;;;;;;;119.25;35.40;;;;;;;;;;5048566;28;20057;-66
2021/12/11 06:04:33;;;;;;;122.03;35.83;;;;;;;;;;5048560;28;20028;-66
2021/12/11 06:06:59;;;;;;;106.88;36.50;;;;;;;;;;5040393;28;20112;-66
2021/12/11 06:09:25;;;;;;;113.88;35.92;;;;;;;;;;5050472;28;20104;-66
2021/12/11 06:11:54;;;;;;;118.70;38.72;;;;;;;;;;5048966;28;20021;-66
2021/12/11 06:14:19;;;;;;;104.13;34.92;;;;;;;;;;5035800;28;20485;-66
2021/12/11 06:16:45;;;;;;;115.88;36.28;;;;;;;;;;5048381;28;20021;-66
2021/12/11 06:19:11;;;;;;;110.30;35.95;;;;;;;;;;5048670;28;20029;-66
2021/12/11 06:21:36;;;;;;;109.13;33.58;;;;;;;;;;5048010;28;20103;-66
2021/12/11 06:24:01;;;;;;;108.13;37.22;;;;;;;;;;5048503;28;20104;-66
2021/12/11 06:26:27;;;;;;;104.45;35.63;;;;;;;;;;5048501;28;20470;-66
2021/12/11 06:28:52;;;;;;;104.25;37.20;;;;;;;;;;5046892;28;20025;-67
2021/12/11 06:31:19;;;;;;;116.30;37.60;;;;;;;;;;5046940;28;20101;-66
2021/12/11 06:33:48;;;;;;;100.95;35.38;;;;;;;;;;5049883;28;20273;-66
2021/12/11 06:36:14;;;;;;;112.53;38.25;;;;;;;;;;5050082;28;20017;-66
2021/12/11 06:38:41;;;;;;;114.18;37.13;;;;;;;;;;5050149;28;20389;-66
2021/12/11 06:41:08;;;;;;;117.18;39.35;;;;;;;;;;5049938;28;20021;-66
2021/12/11 06:43:33;;;;;;;112.03;40.10;;;;;;;;;;5050078;28;20049;-66
2021/12/11 06:45:58;;;;;;;107.00;38.20;;;;;;;;;;5049951;28;20064;-66
2021/12/11 06:48:24;;;;;;;108.35;37.65;;;;;;;;;;5052924;28;20032;-66
2021/12/11 06:50:49;;;;;;;112.32;36.38;;;;;;;;;;5055963;28;20101;-66
2021/12/11 06:53:20;;;;;;;113.07;37.72;;;;;;;;;;5057176;28;20122;-66
2021/12/11 06:55:45;;;;;;;96.03;35.00;;;;;;;;;;5056495;28;20139;-66
2021/12/11 06:58:10;;;;;;;98.97;34.85;;;;;;;;;;5054895;28;20512;-66
2021/12/11 07:00:35;;;;;;;104.10;34.78;;;;;;;;;;5055949;28;20350;-66
2021/12/11 07:03:01;;;;;;;104.13;37.75;;;;;;;;;;5056221;28;20028;-66
2021/12/11 07:05:26;;;;;;;102.07;35.42;;;;;;;;;;5056231;28;20040;-66
2021/12/11 07:07:51;;;;;;;99.53;33.90;;;;;;;;;;5056171;28;20013;-66
2021/12/11 07:10:19;;;;;;;93.30;34.35;;;;;;;;;;5062367;28;20100;-66
2021/12/11 07:12:45;;;;;;;103.32;33.58;;;;;;;;;;5051484;28;20089;-66
2021/12/11 07:15:10;;;;;;;94.72;33.80;;;;;;;;;;5045793;28;20108;-66
2021/12/11 07:17:35;;;;;;;104.68;34.05;;;;;;;;;;5056715;28;20021;-66
2021/12/11 07:20:03;;;;;;;104.05;35.00;;;;;;;;;;5056343;28;20059;-66
2021/12/11 07:22:28;;;;;;;96.18;31.23;;;;;;;;;;5053200;28;20557;-66
2021/12/11 07:24:56;;;;;;;100.85;35.22;;;;;;;;;;5056147;28;20092;-66
2021/12/11 07:27:22;;;;;;;101.75;33.72;;;;;;;;;;5056268;28;20013;-66
2021/12/11 07:29:47;;;;;;;112.25;34.78;;;;;;;;;;5062414;28;20021;-66
2021/12/11 07:32:12;;;;;;;110.60;34.53;;;;;;;;;;5052025;28;20396;-66
2021/12/11 07:34:38;;;;;;;105.75;35.50;;;;;;;;;;5054356;28;20021;-66
2021/12/11 07:37:04;;;;;;;109.13;33.58;;;;;;;;;;5054502;28;20373;-66
2021/12/11 07:39:29;;;;;;;105.70;33.45;;;;;;;;;;5053650;28;20024;-66
2021/12/11 07:41:55;;;;;;;109.03;35.50;;;;;;;;;;5054928;28;20021;-66
2021/12/11 07:44:21;;;;;;;77.75;24.38;;;;;;;;;;5063522;28;20025;-66
2021/12/11 07:46:46;;;;;;;100.93;36.20;;;;;;;;;;5036946;28;20351;-66
2021/12/11 07:49:12;;;;;;;106.25;33.17;;;;;;;;;;5054604;28;20020;-66
2021/12/11 07:51:37;;;;;;;104.65;30.50;;;;;;;;;;5054427;28;20028;-66
2021/12/11 07:54:03;;;;;;;113.43;37.97;;;;;;;;;;5052208;28;20029;-66
2021/12/11 07:56:28;;;;;;;91.07;31.83;;;;;;;;;;5044683;28;20017;-66
2021/12/11 07:58:55;;;;;;;95.35;29.30;;;;;;;;;;5046611;28;20057;-66
2021/12/11 08:01:21;;;;;;;105.50;32.03;;;;;;;;;;5033690;28;20078;-66
2021/12/11 08:03:46;;;;;;;99.75;34.20;;;;;;;;;;5031372;28;20033;-66
2021/12/11 08:06:11;;;;;;;77.65;25.58;;;;;;;;;;5031233;28;20045;-66
2021/12/11 08:08:37;;;;;;;86.13;27.70;;;;;;;;;;5039890;28;20048;-66
2021/12/11 08:11:05;;;;;;;95.55;32.58;;;;;;;;;;5047609;28;20516;-66
2021/12/11 08:13:30;;;;;;;69.57;22.05;;;;;;;;;;5048958;28;20025;-66
2021/12/11 08:15:56;;;;;;;97.43;31.00;;;;;;;;;;5044555;28;20079;-66
2021/12/11 08:18:22;;;;;;;76.72;28.13;;;;;;;;;;5048880;28;20028;-66
2021/12/11 08:20:47;;;;;;;95.63;32.83;;;;;;;;;;5053416;28;20020;-66
2021/12/11 08:23:14;;;;;;;96.68;34.42;;;;;;;;;;5046302;28;20461;-66
2021/12/11 08:25:39;;;;;;;105.13;29.88;;;;;;;;;;5043432;28;20040;-66
2021/12/11 08:28:06;;;;;;;95.30;27.52;;;;;;;;;;5035473;28;20018;-66
2021/12/11 08:30:33;;;;;;;111.55;33.15;;;;;;;;;;5043539;28;20389;-66
2021/12/11 08:32:58;;;;;;;104.72;33.13;;;;;;;;;;5051901;28;20021;-66
2021/12/11 08:35:23;;;;;;;50.10;15.50;;;;;;;;;;5051404;28;20020;-66
2021/12/11 08:37:50;;;;;;;63.63;21.00;;;;;;;;;;5052597;28;20017;-66
2021/12/11 08:40:19;;;;;;;98.15;32.10;;;;;;;;;;5055371;28;20363;-66
2021/12/11 08:42:44;;;;;;;105.25;31.58;;;;;;;;;;5048110;28;20059;-66
2021/12/11 08:45:11;;;;;;;106.07;31.63;;;;;;;;;;5050141;28;20056;-66
2021/12/11 08:47:39;;;;;;;100.45;33.50;;;;;;;;;;5052130;28;20024;-66
2021/12/11 08:50:06;;;;;;;97.10;31.50;;;;;;;;;;5050899;28;20068;-66
2021/12/11 08:52:33;;;;;;;102.53;33.78;;;;;;;;;;5051807;28;20028;-66
2021/12/11 08:54:58;;;;;;;85.07;28.73;;;;;;;;;;5050701;28;20029;-66
2021/12/11 08:57:26;;;;;;;100.60;33.80;;;;;;;;;;5050047;28;20180;-66
2021/12/11 08:59:53;;;;;;;85.35;26.70;;;;;;;;;;5061641;28;20066;-66
2021/12/11 09:02:24;;;;;;;89.00;32.42;;;;;;;;;;5038722;28;20389;-66
2021/12/11 09:05:21;;;;;;;20.35;9.55;;;;;;;;;;5054061;28;20052;-66
2021/12/11 09:07:49;;;;;;;95.55;31.30;;;;;;;;;;4998276;28;20029;-66
2021/12/11 09:10:23;;;;;;;86.72;29.95;;;;;;;;;;5040904;28;20057;-66
2021/12/11 09:12:53;;;;;;;97.57;29.10;;;;;;;;;;5051174;28;20013;-66
2021/12/11 09:15:18;;;;;;;;;;;;;;;;;;5051876;28;20417;-66
2021/12/11 09:17:49;;;;;;;89.88;28.48;;;;;;;;;;5051588;28;19931;-66
2021/12/11 09:20:20;;;;;;;79.85;25.85;;;;;;;;;;5050756;28;20029;-66
2021/12/11 09:23:02;;;;;;;82.20;24.65;;;;;;;;;;5051169;28;20040;-66
2021/12/11 09:25:30;;;;;;;65.65;20.33;;;;;;;;;;5051746;28;20021;-66
2021/12/11 09:28:08;;;;;;;100.25;34.35;;;;;;;;;;5050902;28;20098;-66
2021/12/11 09:30:37;;;;;;;101.35;31.48;;;;;;;;;;5051600;28;20469;-66
2021/12/11 09:33:06;;;;;;;99.13;31.05;;;;;;;;;;5049505;28;20393;-66
2021/12/11 09:35:37;;;;;;;97.55;30.88;;;;;;;;;;5050605;28;20371;-66
2021/12/11 09:38:07;;;;;;;85.82;28.98;;;;;;;;;;5051144;28;20024;-66
2021/12/11 09:40:35;;;;;;;34.05;11.23;;;;;;;;;;5051137;28;20032;-66
2021/12/11 09:43:03;;;;;;;98.25;33.72;;;;;;;;;;5050522;28;20036;-66
2021/12/11 09:45:42;;;;;;;97.13;32.22;;;;;;;;;;5050508;28;20496;-66
2021/12/11 09:48:15;;;;;;;105.57;33.97;;;;;;;;;;5050890;28;20027;-66
2021/12/11 09:50:50;;;;;;;103.45;33.85;;;;;;;;;;5050224;28;20032;-66
2021/12/11 09:53:17;;;;;;;75.47;23.42;;;;;;;;;;5043094;28;20025;-66
2021/12/11 09:55:43;;;;;;;98.55;33.58;;;;;;;;;;5050073;28;20382;-66
2021/12/11 09:58:10;;;;;;;51.53;18.00;;;;;;;;;;5050649;28;20029;-66
2021/12/11 10:00:42;;;;;;;83.85;28.05;;;;;;;;;;5047782;28;20020;-67
2021/12/11 10:03:08;;;;;;;59.45;20.23;;;;;;;;;;5043956;28;20365;-66
2021/12/11 10:05:44;;;;;;;95.47;28.50;;;;;;;;;;5047887;28;20572;-66
2021/12/11 10:08:32;;;;;;;98.40;28.60;;;;;;;;;;5048852;28;20385;-66
2021/12/11 10:11:01;;;;;;;80.20;27.85;;;;;;;;;;5044169;28;20067;-67
2021/12/11 10:13:26;;;;;;;73.28;23.80;;;;;;;;;;5048232;28;20019;-66
2021/12/11 10:15:51;;;;;;;105.60;31.02;;;;;;;;;;5048784;28;20013;-66
2021/12/11 10:18:19;;;;;;;91.55;28.95;;;;;;;;;;5047968;28;20029;-66
2021/12/11 10:20:55;;;;;;;69.18;22.38;;;;;;;;;;5047925;28;20043;-67
2021/12/11 10:23:23;;;;;;;46.80;17.60;;;;;;;;;;5046311;28;20048;-66
2021/12/11 10:25:48;;;;;;;93.20;27.92;;;;;;;;;;5046996;28;20033;-66
2021/12/11 10:28:18;;;;;;;70.07;24.42;;;;;;;;;;5043753;28;20044;-66
2021/12/11 10:30:47;;;;;;;85.85;25.50;;;;;;;;;;5042328;28;20098;-66
2021/12/11 10:33:13;;;;;;;74.05;25.48;;;;;;;;;;5047416;28;20630;-66
2021/12/11 10:35:41;;;;;;;69.78;23.40;;;;;;;;;;5048102;28;20473;-66
2021/12/11 10:38:06;;;;;;;92.18;27.35;;;;;;;;;;5047392;28;20756;-66
2021/12/11 10:40:34;;;;;;;111.50;32.28;;;;;;;;;;5048037;28;20021;-66
2021/12/11 10:43:02;;;;;;;60.08;19.75;;;;;;;;;;5048251;28;20493;-66
2021/12/11 10:45:28;;;;;;;45.15;19.02;;;;;;;;;;5047850;28;20048;-66
2021/12/11 10:47:55;;;;;;;54.88;21.67;;;;;;;;;;5047937;28;20027;-67
2021/12/11 10:50:27;;;;;;;50.95;19.13;;;;;;;;;;5045862;28;20013;-66
2021/12/11 10:52:53;;;;;;;74.50;23.90;;;;;;;;;;5048088;28;20104;-66
2021/12/11 10:55:19;;;;;;;60.30;19.05;;;;;;;;;;5053523;28;20111;-66
2021/12/11 10:57:44;;;;;;;73.65;22.40;;;;;;;;;;5034922;28;20024;-66
2021/12/11 11:00:25;;;;;;;87.38;28.88;;;;;;;;;;5046402;28;20036;-66
2021/12/11 11:02:51;;;;;;;64.82;21.38;;;;;;;;;;5050912;28;20478;-66
2021/12/11 11:05:19;;;;;;;55.75;18.92;;;;;;;;;;5051065;28;20029;-65
2021/12/11 11:07:44;;;;;;;112.97;31.98;;;;;;;;;;5049916;28;20053;-67
2021/12/11 11:10:15;;;;;;;104.05;30.27;;;;;;;;;;5048986;28;20060;-67
2021/12/11 11:12:40;;;;;;;99.32;30.92;;;;;;;;;;5048938;28;20746;-67
2021/12/11 11:15:06;;;;;;;56.58;17.70;;;;;;;;;;5054556;28;20051;-67
2021/12/11 11:17:33;;;;;;;110.28;34.45;;;;;;;;;;5053472;28;20036;-66
2021/12/11 11:19:58;;;;;;;107.55;33.13;;;;;;;;;;5049783;28;20025;-67
2021/12/11 11:22:28;;;;;;;95.72;29.35;;;;;;;;;;5048953;28;20481;-67
2021/12/11 11:24:56;;;;;;;107.03;33.38;;;;;;;;;;5048711;28;20029;-67
2021/12/11 11:27:21;;;;;;;106.32;28.92;;;;;;;;;;5053660;28;20021;-67
2021/12/11 11:29:48;;;;;;;88.78;29.33;;;;;;;;;;5051340;28;20462;-67
2021/12/11 11:32:16;;;;;;;57.25;18.40;;;;;;;;;;5048800;28;20024;-66
2021/12/11 11:34:42;;;;;;;50.40;17.40;;;;;;;;;;5052176;28;20028;-66
2021/12/11 11:37:09;;;;;;;49.67;16.63;;;;;;;;;;5061166;28;20033;-66
2021/12/11 11:39:34;;;;;;;98.40;29.52;;;;;;;;;;5052723;28;20021;-66
2021/12/11 11:42:01;;;;;;;96.45;30.38;;;;;;;;;;5052721;28;20070;-66
2021/12/11 11:44:28;;;;;;;122.63;34.00;;;;;;;;;;5052362;28;20038;-66
2021/12/11 11:46:55;;;;;;;106.22;31.90;;;;;;;;;;5053089;28;20473;-66
2021/12/11 11:49:20;;;;;;;99.93;30.30;;;;;;;;;;5052525;28;20047;-66
2021/12/11 11:51:51;;;;;;;98.93;28.02;;;;;;;;;;5044119;28;20100;-66
2021/12/11 11:54:17;;;;;;;90.13;30.73;;;;;;;;;;5051110;28;20029;-66
2021/12/11 11:56:45;;;;;;;101.95;30.75;;;;;;;;;;5051410;28;20519;-66
2021/12/11 11:59:11;;;;;;;96.65;29.52;;;;;;;;;;5052011;28;20116;-66
2021/12/11 12:01:44;;;;;;;91.63;27.13;;;;;;;;;;5048765;28;20513;-66
2021/12/11 12:04:15;;;;;;;57.35;18.60;;;;;;;;;;5032587;28;20389;-66
2021/12/11 12:06:41;;;;;;;47.97;17.58;;;;;;;;;;5038169;28;20425;-66
2021/12/11 12:09:08;;;;;;;60.85;21.15;;;;;;;;;;5047013;28;20139;-66
2021/12/11 12:11:34;;;;;;;72.40;24.40;;;;;;;;;;5052202;28;20474;-66
2021/12/11 12:14:00;;;;;;;52.72;15.77;;;;;;;;;;5052679;28;20095;-66
2021/12/11 12:16:25;;;;;;;52.72;16.35;;;;;;;;;;5051968;28;20012;-66
2021/12/11 12:18:50;;;;;;;52.33;17.20;;;;;;;;;;5052633;28;20063;-65
2021/12/11 12:21:16;;;;;;;83.50;27.67;;;;;;;;;;5049646;28;20020;-65
2021/12/11 12:23:42;;;;;;;24.80;9.15;;;;;;;;;;5052148;28;20469;-65
2021/12/11 12:26:10;;;;;;;61.13;17.30;;;;;;;;;;5050620;28;20047;-65
2021/12/11 12:28:36;;;;;;;53.22;15.93;;;;;;;;;;5051618;28;20116;-65
2021/12/11 12:31:08;;;;;;;104.07;30.60;;;;;;;;;;5049937;28;20544;-65
2021/12/11 12:33:34;;;;;;;105.40;31.98;;;;;;;;;;5047395;28;20151;-65
2021/12/11 12:35:59;;;;;;;109.30;29.60;;;;;;;;;;5063104;28;20034;-65
2021/12/11 12:38:26;;;;;;;105.32;31.85;;;;;;;;;;5051612;28;20575;-65
2021/12/11 12:40:55;;;;;;;113.00;32.97;;;;;;;;;;5049960;28;20021;-65
2021/12/11 12:43:53;;;;;;;104.13;31.52;;;;;;;;;;5051669;28;20112;-65
2021/12/11 12:46:07;;;;;;;94.03;29.95;;;;;;;;;;5050553;28;20439;-66
2021/12/11 12:48:32;;;;;;;95.00;29.20;;;;;;;;;;5051973;28;20099;-66
2021/12/11 12:51:00;;;;;;;99.13;29.85;;;;;;;;;;5050901;28;20025;-66
2021/12/11 12:53:33;;;;;;;88.97;25.33;;;;;;;;;;5064998;28;20469;-66
2021/12/11 12:56:02;;;;;;;76.03;26.05;;;;;;;;;;5050810;28;20021;-65
2021/12/11 12:58:38;;;;;;;57.85;20.92;;;;;;;;;;5058159;28;20099;-64
2021/12/11 13:01:06;;;;;;;93.07;27.45;;;;;;;;;;5051279;28;20474;-64
2021/12/11 13:03:32;;;;;;;101.75;27.83;;;;;;;;;;5033823;28;20029;-64
2021/12/11 13:06:05;;;;;;;78.05;25.50;;;;;;;;;;5052076;28;20063;-64
2021/12/11 13:08:32;;;;;;;90.18;27.63;;;;;;;;;;5051654;28;20525;-64
2021/12/11 13:11:03;;;;;;;102.95;30.58;;;;;;;;;;5056206;28;20047;-65
2021/12/11 13:13:28;;;;;;;;;;;;;;;;;;5057937;28;20104;-65
2021/12/11 13:15:56;;;;;;;84.88;26.75;;;;;;;;;;5051340;28;19999;-65
2021/12/11 13:18:23;;;;;;;90.10;27.67;;;;;;;;;;5051379;28;20267;-65
2021/12/11 13:20:50;;;;;;;89.22;28.77;;;;;;;;;;5050756;28;20021;-65
2021/12/11 13:23:15;;;;;;;87.30;28.77;;;;;;;;;;5051433;28;20024;-65
2021/12/11 13:25:47;;;;;;;99.78;31.02;;;;;;;;;;5049364;28;20473;-65
2021/12/11 13:28:14;;;;;;;93.97;30.88;;;;;;;;;;5049378;28;20021;-64
2021/12/11 13:30:47;;;;;;;89.00;27.95;;;;;;;;;;5053884;28;20031;-64
2021/12/11 13:33:13;;;;;;;96.93;29.65;;;;;;;;;;5062918;28;20158;-64
2021/12/11 13:35:43;;;;;;;90.35;30.52;;;;;;;;;;5057976;28;20012;-64
2021/12/11 13:38:09;;;;;;;84.50;26.80;;;;;;;;;;5050789;28;20351;-64
2021/12/11 13:40:35;;;;;;;96.15;29.25;;;;;;;;;;5049203;28;20035;-65
2021/12/11 13:43:00;;;;;;;87.50;28.00;;;;;;;;;;5049355;28;20029;-64
2021/12/11 13:45:27;;;;;;;79.78;26.23;;;;;;;;;;5058051;28;20023;-64
2021/12/11 13:47:53;;;;;;;81.40;24.88;;;;;;;;;;5052696;28;20032;-64
2021/12/11 13:50:20;;;;;;;71.30;25.67;;;;;;;;;;5051866;28;20017;-64
2021/12/11 13:52:45;;;;;;;73.10;24.00;;;;;;;;;;5050594;28;20053;-64
2021/12/11 13:55:11;;;;;;;68.13;22.42;;;;;;;;;;5048400;28;20052;-64
2021/12/11 13:57:37;;;;;;;56.28;20.73;;;;;;;;;;5051061;28;20037;-64
2021/12/11 14:00:05;;;;;;;50.80;19.73;;;;;;;;;;5056403;28;20028;-64
2021/12/11 14:02:30;;;;;;;43.50;18.15;;;;;;;;;;5050492;28;20377;-64
2021/12/11 14:04:56;;;;;;;40.78;17.65;;;;;;;;;;5049217;28;20115;-64
2021/12/11 14:07:23;;;;;;;40.42;17.13;;;;;;;;;;5058066;28;20017;-64
2021/12/11 14:09:52;;;;;;;36.20;16.30;;;;;;;;;;5052756;28;20017;-65
2021/12/11 14:12:17;;;;;;;31.10;16.15;;;;;;;;;;5053913;28;20021;-64
2021/12/11 14:14:43;;;;;;;36.00;14.93;;;;;;;;;;5050094;28;20099;-64
2021/12/11 14:17:09;;;;;;;34.50;15.77;;;;;;;;;;5051303;28;20210;-64
2021/12/11 14:19:35;;;;;;;35.50;14.77;;;;;;;;;;5057206;28;20043;-64
2021/12/11 14:22:04;;;;;;;40.50;16.58;;;;;;;;;;5049729;28;20096;-64
2021/12/11 14:24:31;;;;;;;36.47;16.20;;;;;;;;;;5049675;28;20477;-64
2021/12/11 14:26:56;;;;;;;34.28;14.05;;;;;;;;;;5050302;28;20033;-64
2021/12/11 14:29:22;;;;;;;35.78;14.45;;;;;;;;;;5049490;28;20033;-65